Terminal Aerodrome Forecast
Issued by NWS Billings, MT

Home | Current Version | Previous Version | Text Only | Print | Product List | Glossary Off
Versions: 1 2 3 4 5 6 7 8 9 10 11 12 13 14 15 16

000
FTUS45 KBYZ 231915 AAA
TAFMLS
TAF AMD
KMLS 231915Z 2319/2418 28021G30KT P6SM VCSH BKN035 OVC045
     FM232200 30018G27KT P6SM BKN080
     FM240400 26017KT P6SM SCT080 BKN100
     FM241300 29012KT P6SM FEW060=

USA.gov is the U.S. government's official web portal to all federal, state and local government web resources and services.